sensor_id;sensor_type;location;lat;lon;timestamp;pressure;altitude;pressure_sealevel;temperature;humidity
33161;BME280;19522;45.656;11.302;2024-03-07T00:02:19;98345.47;;;7.53;100.00
33161;BME280;19522;45.656;11.302;2024-03-07T00:04:45;98341.91;;;7.69;100.00
33161;BME280;19522;45.656;11.302;2024-03-07T00:07:11;98351.16;;;7.66;100.00
33161;BME280;19522;45.656;11.302;2024-03-07T00:09:37;98352.31;;;7.80;100.00
33161;BME280;19522;45.656;11.302;2024-03-07T00:12:06;98330.44;;;7.58;100.00
33161;BME280;19522;45.656;11.302;2024-03-07T00:14:32;98352.03;;;7.67;100.00
33161;BME280;19522;45.656;11.302;2024-03-07T00:17:01;98356.09;;;7.54;100.00
33161;BME280;19522;45.656;11.302;2024-03-07T00:19:27;98365.06;;;7.30;100.00
33161;BME280;19522;45.656;11.302;2024-03-07T00:21:53;98365.25;;;7.37;100.00
33161;BME280;19522;45.656;11.302;2024-03-07T00:24:19;98356.78;;;7.48;100.00
33161;BME280;19522;45.656;11.302;2024-03-07T00:26:45;98357.09;;;7.61;100.00
33161;BME280;19522;45.656;11.302;2024-03-07T00:29:11;98338.53;;;7.58;100.00
33161;BME280;19522;45.656;11.302;2024-03-07T00:31:36;98328.56;;;7.51;100.00
33161;BME280;19522;45.656;11.302;2024-03-07T00:34:02;98360.94;;;7.75;100.00
33161;BME280;19522;45.656;11.302;2024-03-07T00:36:27;98291.44;;;7.36;100.00
33161;BME280;19522;45.656;11.302;2024-03-07T00:38:53;98355.69;;;7.82;100.00
33161;BME280;19522;45.656;11.302;2024-03-07T00:41:19;98356.88;;;7.88;100.00
33161;BME280;19522;45.656;11.302;2024-03-07T00:43:44;98333.06;;;7.83;100.00
33161;BME280;19522;45.656;11.302;2024-03-07T00:46:10;98337.63;;;7.83;100.00
33161;BME280;19522;45.656;11.302;2024-03-07T00:48:37;98354.66;;;7.91;100.00
33161;BME280;19522;45.656;11.302;2024-03-07T00:51:06;98361.25;;;7.89;100.00
33161;BME280;19522;45.656;11.302;2024-03-07T00:53:34;98352.16;;;7.82;100.00
33161;BME280;19522;45.656;11.302;2024-03-07T00:55:59;98352.31;;;7.88;100.00
33161;BME280;19522;45.656;11.302;2024-03-07T00:58:25;98353.84;;;7.83;100.00
33161;BME280;19522;45.656;11.302;2024-03-07T01:00:52;98323.47;;;7.72;100.00
33161;BME280;19522;45.656;11.302;2024-03-07T01:03:18;98335.88;;;7.98;100.00
33161;BME280;19522;45.656;11.302;2024-03-07T01:05:43;98351.41;;;8.04;100.00
33161;BME280;19522;45.656;11.302;2024-03-07T01:08:10;98330.56;;;7.73;100.00
33161;BME280;19522;45.656;11.302;2024-03-07T01:10:36;98357.22;;;7.93;100.00
33161;BME280;19522;45.656;11.302;2024-03-07T01:13:02;98357.22;;;7.93;100.00
33161;BME280;19522;45.656;11.302;2024-03-07T01:15:32;98352.25;;;8.05;100.00
33161;BME280;19522;45.656;11.302;2024-03-07T01:17:58;98309.94;;;7.72;100.00
33161;BME280;19522;45.656;11.302;2024-03-07T01:20:23;98345.75;;;7.83;100.00
33161;BME280;19522;45.656;11.302;2024-03-07T01:22:51;98345.41;;;7.77;100.00
33161;BME280;19522;45.656;11.302;2024-03-07T01:25:17;98348.75;;;7.88;100.00
33161;BME280;19522;45.656;11.302;2024-03-07T01:27:42;98348.56;;;7.89;100.00
33161;BME280;19522;45.656;11.302;2024-03-07T01:30:09;98347.00;;;8.03;100.00
33161;BME280;19522;45.656;11.302;2024-03-07T01:32:37;98338.22;;;8.09;100.00
33161;BME280;19522;45.656;11.302;2024-03-07T01:35:03;98313.28;;;7.91;100.00
33161;BME280;19522;45.656;11.302;2024-03-07T01:37:28;98298.09;;;7.82;100.00
33161;BME280;19522;45.656;11.302;2024-03-07T01:39:54;98306.81;;;8.00;100.00
33161;BME280;19522;45.656;11.302;2024-03-07T01:42:19;98263.16;;;7.63;100.00
33161;BME280;19522;45.656;11.302;2024-03-07T01:44:45;98308.53;;;7.93;100.00
33161;BME280;19522;45.656;11.302;2024-03-07T01:47:11;98327.94;;;7.97;100.00
33161;BME280;19522;45.656;11.302;2024-03-07T01:49:36;98329.75;;;8.04;100.00
33161;BME280;19522;45.656;11.302;2024-03-07T01:52:04;98327.47;;;7.93;100.00
33161;BME280;19522;45.656;11.302;2024-03-07T01:54:33;98302.78;;;7.88;100.00
33161;BME280;19522;45.656;11.302;2024-03-07T01:57:00;98324.91;;;7.91;100.00
33161;BME280;19522;45.656;11.302;2024-03-07T01:59:26;98323.81;;;8.17;100.00
33161;BME280;19522;45.656;11.302;2024-03-07T02:01:55;98282.03;;;7.88;100.00
33161;BME280;19522;45.656;11.302;2024-03-07T02:04:21;98321.50;;;8.06;100.00
33161;BME280;19522;45.656;11.302;2024-03-07T02:06:50;98235.75;;;7.75;100.00
33161;BME280;19522;45.656;11.302;2024-03-07T02:09:15;98316.19;;;8.21;100.00
33161;BME280;19522;45.656;11.302;2024-03-07T02:11:42;98309.84;;;7.97;100.00
33161;BME280;19522;45.656;11.302;2024-03-07T02:14:08;98312.28;;;7.84;100.00
33161;BME280;19522;45.656;11.302;2024-03-07T02:16:33;98239.47;;;7.26;100.00
33161;BME280;19522;45.656;11.302;2024-03-07T02:18:59;98307.91;;;7.66;100.00
33161;BME280;19522;45.656;11.302;2024-03-07T02:21:25;98302.78;;;7.88;100.00
33161;BME280;19522;45.656;11.302;2024-03-07T02:23:50;98290.94;;;7.97;100.00
33161;BME280;19522;45.656;11.302;2024-03-07T02:26:16;98299.22;;;7.95;100.00
33161;BME280;19522;45.656;11.302;2024-03-07T02:28:42;98276.47;;;7.82;100.00
33161;BME280;19522;45.656;11.302;2024-03-07T02:31:07;98279.47;;;7.87;100.00
33161;BME280;19522;45.656;11.302;2024-03-07T02:33:33;98296.34;;;7.97;100.00
33161;BME280;19522;45.656;11.302;2024-03-07T02:35:58;98294.66;;;7.96;100.00
33161;BME280;19522;45.656;11.302;2024-03-07T02:38:24;98281.28;;;7.55;100.00
33161;BME280;19522;45.656;11.302;2024-03-07T02:40:49;98303.03;;;7.61;100.00
33161;BME280;19522;45.656;11.302;2024-03-07T02:43:15;98298.81;;;7.59;100.00
33161;BME280;19522;45.656;11.302;2024-03-07T02:45:41;98289.31;;;7.79;100.00
33161;BME280;19522;45.656;11.302;2024-03-07T02:48:07;98284.44;;;7.75;100.00
33161;BME280;19522;45.656;11.302;2024-03-07T02:50:37;98257.78;;;7.55;100.00
33161;BME280;19522;45.656;11.302;2024-03-07T02:53:04;98265.06;;;7.55;100.00
33161;BME280;19522;45.656;11.302;2024-03-07T02:55:30;98290.69;;;7.67;100.00
33161;BME280;19522;45.656;11.302;2024-03-07T02:57:56;98262.53;;;7.53;100.00
33161;BME280;19522;45.656;11.302;2024-03-07T03:00:26;98287.03;;;7.52;100.00
33161;BME280;19522;45.656;11.302;2024-03-07T03:02:53;98294.78;;;7.63;100.00
33161;BME280;19522;45.656;11.302;2024-03-07T03:05:18;98288.13;;;7.74;100.00
33161;BME280;19522;45.656;11.302;2024-03-07T03:07:44;98289.63;;;7.85;100.00
33161;BME280;19522;45.656;11.302;2024-03-07T03:10:22;98277.22;;;7.51;100.00
33161;BME280;19522;45.656;11.302;2024-03-07T03:12:57;98249.91;;;7.29;100.00
33161;BME280;19522;45.656;11.302;2024-03-07T03:15:24;98289.72;;;7.60;100.00
33161;BME280;19522;45.656;11.302;2024-03-07T03:17:49;98261.84;;;7.59;100.00
33161;BME280;19522;45.656;11.302;2024-03-07T03:20:15;98277.53;;;7.64;100.00
33161;BME280;19522;45.656;11.302;2024-03-07T03:22:52;98253.94;;;7.41;100.00
33161;BME280;19522;45.656;11.302;2024-03-07T03:25:19;98275.38;;;7.59;100.00
33161;BME280;19522;45.656;11.302;2024-03-07T03:27:46;98294.19;;;7.84;100.00
33161;BME280;19522;45.656;11.302;2024-03-07T03:30:12;98292.13;;;7.94;100.00
33161;BME280;19522;45.656;11.302;2024-03-07T03:32:46;98301.06;;;7.95;100.00
33161;BME280;19522;45.656;11.302;2024-03-07T03:35:13;98307.50;;;7.94;100.00
33161;BME280;19522;45.656;11.302;2024-03-07T03:37:42;98294.38;;;7.83;100.00
33161;BME280;19522;45.656;11.302;2024-03-07T03:40:09;98290.00;;;7.73;100.00
33161;BME280;19522;45.656;11.302;2024-03-07T03:42:35;98263.72;;;7.51;100.00
33161;BME280;19522;45.656;11.302;2024-03-07T03:45:03;98277.53;;;7.64;100.00
33161;BME280;19522;45.656;11.302;2024-03-07T03:47:36;98297.09;;;7.74;100.00
33161;BME280;19522;45.656;11.302;2024-03-07T03:50:05;98266.72;;;7.64;100.00
33161;BME280;19522;45.656;11.302;2024-03-07T03:52:31;98284.25;;;7.76;100.00
33161;BME280;19522;45.656;11.302;2024-03-07T03:54:58;98299.59;;;7.84;100.00
33161;BME280;19522;45.656;11.302;2024-03-07T03:57:25;98292.84;;;7.88;100.00
33161;BME280;19522;45.656;11.302;2024-03-07T03:59:51;98262.75;;;7.83;100.00
33161;BME280;19522;45.656;11.302;2024-03-07T04:02:17;98265.22;;;8.01;100.00
33161;BME280;19522;45.656;11.302;2024-03-07T04:04:42;98269.91;;;8.07;100.00
33161;BME280;19522;45.656;11.302;2024-03-07T04:07:09;98276.19;;;8.00;100.00
33161;BME280;19522;45.656;11.302;2024-03-07T04:09:35;98276.13;;;7.76;100.00
33161;BME280;19522;45.656;11.302;2024-03-07T04:12:00;98265.31;;;7.76;100.00
33161;BME280;19522;45.656;11.302;2024-03-07T04:14:26;98266.03;;;7.70;100.00
33161;BME280;19522;45.656;11.302;2024-03-07T04:16:51;98288.31;;;7.72;100.00
33161;BME280;19522;45.656;11.302;2024-03-07T04:19:19;98286.56;;;7.88;100.00
33161;BME280;19522;45.656;11.302;2024-03-07T04:21:48;98295.72;;;7.78;100.00
33161;BME280;19522;45.656;11.302;2024-03-07T04:24:14;98273.78;;;7.73;100.00
33161;BME280;19522;45.656;11.302;2024-03-07T04:26:39;98289.59;;;7.93;100.00
33161;BME280;19522;45.656;11.302;2024-03-07T04:29:07;98270.97;;;7.98;100.00
33161;BME280;19522;45.656;11.302;2024-03-07T04:31:34;98293.44;;;7.99;100.00
33161;BME280;19522;45.656;11.302;2024-03-07T04:33:59;98292.50;;;7.83;100.00
33161;BME280;19522;45.656;11.302;2024-03-07T04:36:25;98266.06;;;7.62;100.00
33161;BME280;19522;45.656;11.302;2024-03-07T04:38:51;98300.94;;;7.80;100.00
33161;BME280;19522;45.656;11.302;2024-03-07T04:41:26;98214.63;;;7.39;100.00
33161;BME280;19522;45.656;11.302;2024-03-07T04:43:55;98293.69;;;7.80;100.00
33161;BME280;19522;45.656;11.302;2024-03-07T04:46:20;98272.66;;;7.59;100.00
33161;BME280;19522;45.656;11.302;2024-03-07T04:48:46;98298.50;;;8.02;100.00
33161;BME280;19522;45.656;11.302;2024-03-07T04:51:11;98301.09;;;7.87;100.00
33161;BME280;19522;45.656;11.302;2024-03-07T04:53:37;98301.53;;;8.07;100.00
33161;BME280;19522;45.656;11.302;2024-03-07T04:56:07;98249.84;;;7.62;100.00
33161;BME280;19522;45.656;11.302;2024-03-07T04:58:35;98296.66;;;7.94;100.00
33161;BME280;19522;45.656;11.302;2024-03-07T05:01:01;98195.59;;;7.24;100.00
33161;BME280;19522;45.656;11.302;2024-03-07T05:03:27;98303.66;;;7.88;100.00
33161;BME280;19522;45.656;11.302;2024-03-07T05:05:56;98301.09;;;7.87;100.00
33161;BME280;19522;45.656;11.302;2024-03-07T05:08:22;98115.38;;;6.84;100.00
33161;BME280;19522;45.656;11.302;2024-03-07T05:10:48;98193.22;;;7.21;100.00
33161;BME280;19522;45.656;11.302;2024-03-07T05:13:13;98305.47;;;7.96;100.00
33161;BME280;19522;45.656;11.302;2024-03-07T05:15:39;98305.19;;;7.83;100.00
33161;BME280;19522;45.656;11.302;2024-03-07T05:18:04;98203.00;;;7.30;100.00
33161;BME280;19522;45.656;11.302;2024-03-07T05:20:30;98305.84;;;7.93;100.00
33161;BME280;19522;45.656;11.302;2024-03-07T05:22:58;98307.63;;;8.01;100.00
33161;BME280;19522;45.656;11.302;2024-03-07T05:25:24;98305.47;;;7.96;100.00
33161;BME280;19522;45.656;11.302;2024-03-07T05:27:49;98264.03;;;7.64;100.00
33161;BME280;19522;45.656;11.302;2024-03-07T05:30:16;98295.53;;;7.80;100.00
33161;BME280;19522;45.656;11.302;2024-03-07T05:32:42;98313.91;;;8.01;100.00
33161;BME280;19522;45.656;11.302;2024-03-07T05:35:08;98305.16;;;7.91;100.00
33161;BME280;19522;45.656;11.302;2024-03-07T05:37:34;98268.06;;;7.68;100.00
33161;BME280;19522;45.656;11.302;2024-03-07T05:39:59;98322.59;;;7.88;100.00
33161;BME280;19522;45.656;11.302;2024-03-07T05:42:25;98311.25;;;7.85;100.00
33161;BME280;19522;45.656;11.302;2024-03-07T05:44:51;98319.34;;;7.93;100.00
33161;BME280;19522;45.656;11.302;2024-03-07T05:47:19;98326.94;;;7.89;100.00
33161;BME280;19522;45.656;11.302;2024-03-07T05:49:44;98296.25;;;7.74;100.00
33161;BME280;19522;45.656;11.302;2024-03-07T05:52:10;98288.97;;;7.83;100.00
33161;BME280;19522;45.656;11.302;2024-03-07T05:54:36;98335.09;;;7.81;100.00
33161;BME280;19522;45.656;11.302;2024-03-07T05:57:02;98314.66;;;7.78;100.00
33161;BME280;19522;45.656;11.302;2024-03-07T05:59:27;98330.09;;;8.09;100.00
33161;BME280;19522;45.656;11.302;2024-03-07T06:01:59;98331.13;;;8.08;100.00
33161;BME280;19522;45.656;11.302;2024-03-07T06:04:27;98343.28;;;8.04;100.00
33161;BME280;19522;45.656;11.302;2024-03-07T06:06:54;98331.38;;;7.82;100.00
33161;BME280;19522;45.656;11.302;2024-03-07T06:09:20;98295.59;;;7.63;100.00
33161;BME280;19522;45.656;11.302;2024-03-07T06:11:49;98345.38;;;7.86;100.00
33161;BME280;19522;45.656;11.302;2024-03-07T06:14:15;98347.75;;;7.89;100.00
33161;BME280;19522;45.656;11.302;2024-03-07T06:16:41;98337.78;;;7.81;100.00
33161;BME280;19522;45.656;11.302;2024-03-07T06:19:08;98341.66;;;7.87;100.00
33161;BME280;19522;45.656;11.302;2024-03-07T06:21:35;98347.91;;;7.95;100.00
33161;BME280;19522;45.656;11.302;2024-03-07T06:24:02;98358.00;;;8.02;100.00
33161;BME280;19522;45.656;11.302;2024-03-07T06:26:32;98360.69;;;8.10;100.00
33161;BME280;19522;45.656;11.302;2024-03-07T06:29:15;98359.00;;;8.57;100.00
33161;BME280;19522;45.656;11.302;2024-03-07T06:31:41;98331.91;;;8.25;100.00
33161;BME280;19522;45.656;11.302;2024-03-07T06:34:08;98365.63;;;8.38;100.00
33161;BME280;19522;45.656;11.302;2024-03-07T06:36:34;98345.56;;;8.24;100.00
33161;BME280;19522;45.656;11.302;2024-03-07T06:38:59;98348.00;;;8.10;100.00
33161;BME280;19522;45.656;11.302;2024-03-07T06:41:25;98351.09;;;7.99;100.00
33161;BME280;19522;45.656;11.302;2024-03-07T06:43:51;98370.38;;;7.96;100.00
33161;BME280;19522;45.656;11.302;2024-03-07T06:46:21;98362.81;;;7.75;100.00
33161;BME280;19522;45.656;11.302;2024-03-07T06:48:46;98374.78;;;7.89;100.00
33161;BME280;19522;45.656;11.302;2024-03-07T06:51:12;98373.09;;;7.88;100.00
33161;BME280;19522;45.656;11.302;2024-03-07T06:53:38;98351.66;;;7.78;100.00
33161;BME280;19522;45.656;11.302;2024-03-07T06:56:05;98339.97;;;7.86;100.00
33161;BME280;19522;45.656;11.302;2024-03-07T06:58:31;98374.69;;;8.14;100.00
33161;BME280;19522;45.656;11.302;2024-03-07T07:00:57;98344.63;;;8.08;100.00
33161;BME280;19522;45.656;11.302;2024-03-07T07:03:24;98311.06;;;7.94;100.00
33161;BME280;19522;45.656;11.302;2024-03-07T07:05:50;98328.22;;;8.10;100.00
33161;BME280;19522;45.656;11.302;2024-03-07T07:08:16;98364.88;;;8.21;100.00
33161;BME280;19522;45.656;11.302;2024-03-07T07:10:42;98339.75;;;8.04;100.00
33161;BME280;19522;45.656;11.302;2024-03-07T07:13:08;98369.25;;;8.30;100.00
33161;BME280;19522;45.656;11.302;2024-03-07T07:15:34;98369.69;;;8.42;100.00
33161;BME280;19522;45.656;11.302;2024-03-07T07:18:02;98369.41;;;8.29;100.00
33161;BME280;19522;45.656;11.302;2024-03-07T07:20:28;98365.53;;;8.23;100.00
33161;BME280;19522;45.656;11.302;2024-03-07T07:22:54;98361.69;;;8.17;100.00
33161;BME280;19522;45.656;11.302;2024-03-07T07:25:20;98376.66;;;8.36;100.00
33161;BME280;19522;45.656;11.302;2024-03-07T07:27:52;98361.25;;;8.37;100.00
33161;BME280;19522;45.656;11.302;2024-03-07T07:30:19;98389.47;;;8.42;100.00
33161;BME280;19522;45.656;11.302;2024-03-07T07:32:49;98262.97;;;7.73;100.00
33161;BME280;19522;45.656;11.302;2024-03-07T07:35:14;98381.66;;;8.56;100.00
33161;BME280;19522;45.656;11.302;2024-03-07T07:37:41;98358.63;;;8.20;100.00
33161;BME280;19522;45.656;11.302;2024-03-07T07:40:08;98392.84;;;8.53;100.00
33161;BME280;19522;45.656;11.302;2024-03-07T07:42:36;98391.81;;;8.54;100.00
33161;BME280;19522;45.656;11.302;2024-03-07T07:45:08;98381.31;;;8.59;100.00
33161;BME280;19522;45.656;11.302;2024-03-07T07:47:40;98366.38;;;8.63;100.00
33161;BME280;19522;45.656;11.302;2024-03-07T07:50:10;98360.75;;;8.41;100.00
33161;BME280;19522;45.656;11.302;2024-03-07T07:52:44;98384.66;;;8.61;100.00
33161;BME280;19522;45.656;11.302;2024-03-07T07:55:11;98385.88;;;8.58;100.00
33161;BME280;19522;45.656;11.302;2024-03-07T07:57:41;98392.75;;;8.69;100.00
33161;BME280;19522;45.656;11.302;2024-03-07T08:00:09;98393.25;;;8.73;100.00
33161;BME280;19522;45.656;11.302;2024-03-07T08:02:34;98395.66;;;8.91;100.00
33161;BME280;19522;45.656;11.302;2024-03-07T08:05:00;98373.44;;;8.72;100.00
33161;BME280;19522;45.656;11.302;2024-03-07T08:07:26;98405.66;;;8.91;100.00
33161;BME280;19522;45.656;11.302;2024-03-07T08:09:51;98397.34;;;8.92;100.00
33161;BME280;19522;45.656;11.302;2024-03-07T08:12:17;98394.66;;;8.92;100.00
33161;BME280;19522;45.656;11.302;2024-03-07T08:14:42;98362.59;;;8.72;100.00
33161;BME280;19522;45.656;11.302;2024-03-07T08:17:10;98397.63;;;9.06;100.00
33161;BME280;19522;45.656;11.302;2024-03-07T08:19:36;98389.78;;;9.11;100.00
33161;BME280;19522;45.656;11.302;2024-03-07T08:22:01;98397.84;;;9.19;100.00
33161;BME280;19522;45.656;11.302;2024-03-07T08:24:27;98410.09;;;9.15;100.00
33161;BME280;19522;45.656;11.302;2024-03-07T08:26:53;98376.00;;;8.97;100.00
33161;BME280;19522;45.656;11.302;2024-03-07T08:29:18;98395.09;;;9.27;100.00
33161;BME280;19522;45.656;11.302;2024-03-07T08:31:44;98367.41;;;9.17;100.00
33161;BME280;19522;45.656;11.302;2024-03-07T08:34:09;98366.97;;;9.05;100.00
33161;BME280;19522;45.656;11.302;2024-03-07T08:36:35;98388.69;;;9.20;100.00
33161;BME280;19522;45.656;11.302;2024-03-07T08:39:01;98381.53;;;9.27;100.00
33161;BME280;19522;45.656;11.302;2024-03-07T08:41:29;98392.31;;;9.35;100.00
33161;BME280;19522;45.656;11.302;2024-03-07T08:43:56;98388.69;;;9.43;100.00
33161;BME280;19522;45.656;11.302;2024-03-07T08:46:22;98395.44;;;9.47;100.00
33161;BME280;19522;45.656;11.302;2024-03-07T08:48:47;98370.91;;;9.41;100.00
33161;BME280;19522;45.656;11.302;2024-03-07T08:51:15;98394.81;;;9.60;100.00
33161;BME280;19522;45.656;11.302;2024-03-07T08:53:41;98384.06;;;9.67;100.00
33161;BME280;19522;45.656;11.302;2024-03-07T08:56:06;98380.72;;;9.80;100.00
33161;BME280;19522;45.656;11.302;2024-03-07T08:58:32;98398.03;;;9.94;98.15
33161;BME280;19522;45.656;11.302;2024-03-07T09:00:57;98365.47;;;9.79;98.09
33161;BME280;19522;45.656;11.302;2024-03-07T09:03:24;98395.78;;;9.97;99.34
33161;BME280;19522;45.656;11.302;2024-03-07T09:05:51;98398.50;;;9.97;98.76
33161;BME280;19522;45.656;11.302;2024-03-07T09:08:17;98389.22;;;9.77;99.12
33161;BME280;19522;45.656;11.302;2024-03-07T09:10:43;98363.63;;;9.79;96.40
33161;BME280;19522;45.656;11.302;2024-03-07T09:13:09;98398.97;;;10.01;94.24
33161;BME280;19522;45.656;11.302;2024-03-07T09:15:35;98396.75;;;10.05;95.05
33161;BME280;19522;45.656;11.302;2024-03-07T09:18:02;98396.34;;;10.08;95.71
33161;BME280;19522;45.656;11.302;2024-03-07T09:20:28;98378.13;;;10.02;95.21
33161;BME280;19522;45.656;11.302;2024-03-07T09:22:56;98395.53;;;10.22;94.60
33161;BME280;19522;45.656;11.302;2024-03-07T09:25:21;98388.03;;;10.24;93.70
33161;BME280;19522;45.656;11.302;2024-03-07T09:27:48;98391.25;;;10.43;89.39
33161;BME280;19522;45.656;11.302;2024-03-07T09:30:14;98404.25;;;10.63;87.55
33161;BME280;19522;45.656;11.302;2024-03-07T09:32:47;98404.06;;;10.49;89.06
33161;BME280;19522;45.656;11.302;2024-03-07T09:35:12;98402.16;;;10.65;89.36
33161;BME280;19522;45.656;11.302;2024-03-07T09:37:42;98392.34;;;10.19;90.75
33161;BME280;19522;45.656;11.302;2024-03-07T09:40:08;98384.84;;;10.36;91.98
33161;BME280;19522;45.656;11.302;2024-03-07T09:42:49;98378.84;;;10.55;87.47
33161;BME280;19522;45.656;11.302;2024-03-07T09:45:19;98364.56;;;10.83;83.81
33161;BME280;19522;45.656;11.302;2024-03-07T09:47:48;98405.06;;;10.63;84.40
33161;BME280;19522;45.656;11.302;2024-03-07T09:50:16;98379.16;;;10.31;88.33
33161;BME280;19522;45.656;11.302;2024-03-07T09:52:45;98400.72;;;10.84;85.71
33161;BME280;19522;45.656;11.302;2024-03-07T09:55:12;98400.84;;;10.75;85.10
33161;BME280;19522;45.656;11.302;2024-03-07T09:57:39;98395.81;;;10.57;86.66
33161;BME280;19522;45.656;11.302;2024-03-07T10:00:06;98407.34;;;10.44;87.50
33161;BME280;19522;45.656;11.302;2024-03-07T10:02:36;98325.25;;;9.97;87.64
33161;BME280;19522;45.656;11.302;2024-03-07T10:05:08;98409.47;;;10.04;87.68
33161;BME280;19522;45.656;11.302;2024-03-07T10:07:35;98389.22;;;9.77;88.14
33161;BME280;19522;45.656;11.302;2024-03-07T10:10:01;98413.66;;;9.92;88.31
33161;BME280;19522;45.656;11.302;2024-03-07T10:12:35;98406.28;;;10.31;88.70
33161;BME280;19522;45.656;11.302;2024-03-07T10:15:03;98367.44;;;10.45;86.68
33161;BME280;19522;45.656;11.302;2024-03-07T10:17:30;98411.63;;;10.69;86.16
33161;BME280;19522;45.656;11.302;2024-03-07T10:19:59;98410.28;;;10.80;86.54
33161;BME280;19522;45.656;11.302;2024-03-07T10:22:26;98399.72;;;10.70;88.12
33161;BME280;19522;45.656;11.302;2024-03-07T10:24:52;98410.00;;;10.89;85.86
33161;BME280;19522;45.656;11.302;2024-03-07T10:27:22;98415.19;;;10.39;88.37
33161;BME280;19522;45.656;11.302;2024-03-07T10:29:48;98415.69;;;10.43;89.20
33161;BME280;19522;45.656;11.302;2024-03-07T10:32:24;98425.31;;;10.46;92.26
33161;BME280;19522;45.656;11.302;2024-03-07T10:34:51;98415.00;;;10.11;93.51
33161;BME280;19522;45.656;11.302;2024-03-07T10:37:17;98425.28;;;10.31;94.03
33161;BME280;19522;45.656;11.302;2024-03-07T10:39:44;98395.91;;;10.19;94.37
33161;BME280;19522;45.656;11.302;2024-03-07T10:42:21;98409.47;;;10.04;94.40
33161;BME280;19522;45.656;11.302;2024-03-07T10:44:53;98413.88;;;10.20;95.07
33161;BME280;19522;45.656;11.302;2024-03-07T10:47:23;98393.38;;;10.18;95.59
33161;BME280;19522;45.656;11.302;2024-03-07T10:50:04;98419.00;;;10.30;91.51
33161;BME280;19522;45.656;11.302;2024-03-07T10:53:02;98414.16;;;10.55;89.87
33161;BME280;19522;45.656;11.302;2024-03-07T10:55:38;98409.81;;;10.76;87.28
33161;BME280;19522;45.656;11.302;2024-03-07T10:58:09;98411.50;;;10.77;88.85
33161;BME280;19522;45.656;11.302;2024-03-07T11:00:41;98353.31;;;10.20;88.33
33161;BME280;19522;45.656;11.302;2024-03-07T11:03:11;98407.69;;;10.71;87.83
33161;BME280;19522;45.656;11.302;2024-03-07T11:05:37;98411.06;;;10.73;88.65
33161;BME280;19522;45.656;11.302;2024-03-07T11:08:03;98409.28;;;11.02;90.12
33161;BME280;19522;45.656;11.302;2024-03-07T11:10:38;98385.75;;;11.31;85.78
33161;BME280;19522;45.656;11.302;2024-03-07T11:13:09;98408.88;;;11.20;87.54
33161;BME280;19522;45.656;11.302;2024-03-07T11:15:40;98407.38;;;10.81;88.86
33161;BME280;19522;45.656;11.302;2024-03-07T11:18:07;98396.97;;;11.06;89.20
33161;BME280;19522;45.656;11.302;2024-03-07T11:20:37;98399.03;;;10.83;89.00
33161;BME280;19522;45.656;11.302;2024-03-07T11:23:29;98402.03;;;10.73;91.66
33161;BME280;19522;45.656;11.302;2024-03-07T11:26:05;98401.00;;;10.74;90.03
33161;BME280;19522;45.656;11.302;2024-03-07T11:28:38;98397.78;;;10.49;89.80
33161;BME280;19522;45.656;11.302;2024-03-07T11:33:36;98396.47;;;10.44;88.85
33161;BME280;19522;45.656;11.302;2024-03-07T11:36:02;98381.13;;;10.52;88.61
33161;BME280;19522;45.656;11.302;2024-03-07T11:38:32;98359.69;;;10.42;89.36
33161;BME280;19522;45.656;11.302;2024-03-07T11:41:00;98396.19;;;10.54;88.06
33161;BME280;19522;45.656;11.302;2024-03-07T11:43:33;98386.88;;;10.64;89.83
33161;BME280;19522;45.656;11.302;2024-03-07T11:45:59;98350.22;;;10.08;92.38
33161;BME280;19522;45.656;11.302;2024-03-07T11:48:24;98360.91;;;9.94;96.94
33161;BME280;19522;45.656;11.302;2024-03-07T11:50:50;98367.84;;;10.27;97.21
33161;BME280;19522;45.656;11.302;2024-03-07T11:53:16;98384.41;;;10.47;93.34
33161;BME280;19522;45.656;11.302;2024-03-07T11:55:42;98377.81;;;9.96;97.46
33161;BME280;19522;45.656;11.302;2024-03-07T11:58:15;98362.94;;;9.62;100.00
33161;BME280;19522;45.656;11.302;2024-03-07T12:00:47;98390.06;;;9.77;100.00
33161;BME280;19522;45.656;11.302;2024-03-07T12:03:19;98367.91;;;9.74;100.00
33161;BME280;19522;45.656;11.302;2024-03-07T12:05:51;98375.38;;;9.72;100.00
33161;BME280;19522;45.656;11.302;2024-03-07T12:08:17;98368.75;;;10.04;100.00
33161;BME280;19522;45.656;11.302;2024-03-07T12:10:44;98334.34;;;10.05;99.92
33161;BME280;19522;45.656;11.302;2024-03-07T12:13:10;98306.00;;;9.92;97.66
33161;BME280;19522;45.656;11.302;2024-03-07T12:15:37;98372.91;;;10.00;99.67
33161;BME280;19522;45.656;11.302;2024-03-07T12:18:04;98371.84;;;9.86;100.00
33161;BME280;19522;45.656;11.302;2024-03-07T12:20:35;98374.06;;;9.67;100.00
33161;BME280;19522;45.656;11.302;2024-03-07T12:23:01;98349.44;;;9.39;100.00
33161;BME280;19522;45.656;11.302;2024-03-07T12:25:34;98349.63;;;9.52;100.00
33161;BME280;19522;45.656;11.302;2024-03-07T12:28:09;98344.63;;;10.09;100.00
33161;BME280;19522;45.656;11.302;2024-03-07T12:30:50;98361.63;;;10.33;100.00
33161;BME280;19522;45.656;11.302;2024-03-07T12:33:17;98367.47;;;10.00;100.00
33161;BME280;19522;45.656;11.302;2024-03-07T12:35:44;98353.59;;;9.95;100.00
33161;BME280;19522;45.656;11.302;2024-03-07T12:38:11;98361.94;;;9.93;100.00
33161;BME280;19522;45.656;11.302;2024-03-07T12:40:41;98343.88;;;10.01;100.00
33161;BME280;19522;45.656;11.302;2024-03-07T12:43:23;98358.84;;;10.11;100.00
33161;BME280;19522;45.656;11.302;2024-03-07T12:45:51;98361.28;;;10.06;100.00
33161;BME280;19522;45.656;11.302;2024-03-07T12:48:20;98330.31;;;10.01;100.00
33161;BME280;19522;45.656;11.302;2024-03-07T12:50:55;98283.19;;;9.72;100.00
33161;BME280;19522;45.656;11.302;2024-03-07T12:53:22;98345.66;;;10.23;100.00
33161;BME280;19522;45.656;11.302;2024-03-07T12:55:52;98322.94;;;9.79;100.00